PVR weather

Licenciado Gustavo Díaz Ordaz International Airport
Puerto Vallarta, Jalisco, Mexico

Public forecast

Using degrees Celsius for public forecast. Weather courtesy of forecast.io.

Current aviation weather report (METAR) for Licenciado Gustavo Díaz Ordaz International Airport

Retrieved 2020/03/30 05:44 UTC (1 hour ago):

MMPR 300544Z 00000KT 12SM SKC 22/20 A2990 RMK SLP121 54000 904

Aviation forecast (TAF) for Licenciado Gustavo Díaz Ordaz International Airport

Retrieved 2020/03/30 06:13 UTC (36 minutes ago):

TAF MMPR 300406Z 3006/3112 02005KT P6SM SCT020 TX28/3021Z TN18/3012Z FM301700 20010KT P6SM SKC FM310400 03005KT P6SM SCT020